To NAV CANADA Home Page Login to a new session Search on AWWS site Feedback and Comments Disclaimer Vers la page française équivalente Tips FAQ What's new on the site To the Forecasts and Observations / NOTAM section To "File a Flight Plan" website Publications and other links Update of the User's profile FIC Telephone Numbers My Weather Data Folder Route Weather Data Regional Weather Data Local Weather Data To the Forecasts and Observations / NOTAM section
Request Generated 03/03/2015 at 00:33:46 UTC . Weather information available at that time is displayed.

METAR/TAF

ARVIAT/NU    

METAR CYEK 030000Z AUTO 36012KT 9SM SCT130 M30/M34 A2995 RMK SLP143=
METAR CYEK 022300Z 36011KT 15SM FEW100 OVC280 M30/M34 A2995 RMK
AS1CS7 LAST STAFFED OB/NEXT 031300Z SLP143=
METAR CYEK 022200Z 36012KT 15SM FEW100 BKN290 M30/M34 A2994 RMK
AS1CS6 SLP139=

TAF CYEK 022338Z 0300/0312 36012KT P6SM FEW200
FM030400 36012KT P6SM SCT030 TEMPO 0304/0312 5SM -SN BKN030
RMK NXT FCST BY 030600Z=
Your time UTC time
Weather data provided by Environment Canada and NAV CANADA